M I D A S
Marine Information and Data Acquisition System
Tripno 760 of the Zeeleeuw from 2004-06-25 06:46:14 to 2004-06-25 15:04:37
Back to CruiseResearch ActivitiesStationsMapUnderway DataData graphs

EquipmentUnitsComment
TimeDGPSUTC
LatitudeDGPSDM.mWGS84
LongitudeDGPSDM.mWGS84
HeadingGyrodeg 
SOGDGPSknotsSpeed over ground
COGDGPSdegCourse over ground
DepthEcho soundermeters200 kHz
Missing or incorrect values are displayed as -999
Navigation data collected by the RV Zeeleeuw from 2004-06-25 06:46:14 to 2004-06-25 15:04:37
Time Latitude Longitude Heading SOG COG Depth
2004-06-25 06:47:18 51°13.66 2°55.967 115.3 0.5 282 9.4
2004-06-25 06:48:18 51°13.677 2°55.903 114.9 3.7 292 -999
2004-06-25 06:49:18 51°13.697 2°55.791 103.7 4.6 282 -999
2004-06-25 06:50:18 51°13.705 2°55.77 58.4 0.1 16 15.7
2004-06-25 06:51:18 51°13.701 2°55.758 23.3 2.6 13 -999
2004-06-25 06:52:18 51°13.77 2°55.699 329.6 6 326 12.1
2004-06-25 06:53:18 51°13.873 2°55.603 340.2 7.9 335 11.9
2004-06-25 06:54:18 51°14 2°55.515 341.2 8.6 336 14.4
2004-06-25 06:55:23 51°14.146 2°55.411 339.5 9.2 334 14
2004-06-25 06:56:28 51°14.283 2°55.224 317.1 10.4 309 13.4
2004-06-25 06:57:28 51°14.403 2°55.018 324.5 11 325 13
2004-06-25 06:58:28 51°14.582 2°54.911 341.4 11.6 340 11.4
2004-06-25 06:59:28 51°14.76 2°54.799 348.6 11.9 346 11.2
2004-06-25 07:00:28 51°14.952 2°54.708 344.9 12 343 11.2
2004-06-25 07:01:32 51°15.158 2°54.616 346.9 11.9 347 -999
2004-06-25 07:02:32 51°15.354 2°54.538 348.1 12.1 348 10.9
2004-06-25 07:03:33 51°15.557 2°54.453 347.5 12.4 346 11.6
2004-06-25 07:04:32 51°15.751 2°54.372 349.9 12 345 12.6
2004-06-25 07:05:37 51°15.962 2°54.288 348.7 12.3 347 12.9
2004-06-25 07:06:36 51°16.153 2°54.241   9.4 1 13.8
2004-06-25 07:07:37 51°16.255 2°54.279 30.8 4.6 31 13.2
2004-06-25 07:08:37 51°16.282 2°54.329 43.4 1.4 65 13.7
2004-06-25 07:09:37 51°16.291 2°54.371 42.8 1.9 81 13.6
2004-06-25 07:10:37 51°16.302 2°54.411 35.4 1.9 59 13.2
2004-06-25 07:11:37 51°16.332 2°54.461 34 3.3 44 13.5
2004-06-25 07:12:37 51°16.368 2°54.523 44.2 3 47 12.6
2004-06-25 07:13:37 51°16.399 2°54.588 46.9 3.2 59 13.1
2004-06-25 07:14:37 51°16.429 2°54.654 59.5 3.1 60 12.7
2004-06-25 07:15:37 51°16.454 2°54.726 63.8 3.1 57 12.2
2004-06-25 07:16:37 51°16.477 2°54.799 62.2 3.2 59 12.6
2004-06-25 07:17:37 51°16.502 2°54.869 58.7 3.1 60 13
2004-06-25 07:18:37 51°16.527 2°54.938 57.2 3.1 60 12.8
2004-06-25 07:19:41 51°16.554 2°55.011 57.6 2.8 58 13.2
2004-06-25 07:20:42 51°16.578 2°55.078 56 3 70 13.3
2004-06-25 07:21:41 51°16.603 2°55.14 54.5 2.7 52 12.8
2004-06-25 07:22:41 51°16.628 2°55.2 52 2.8 50 13.2
2004-06-25 07:23:41 51°16.655 2°55.263 54.1 3 56 12.9
2004-06-25 07:24:50 51°16.684 2°55.341 64.5 3.1 65 12.9
2004-06-25 07:25:49 51°16.704 2°55.418 76.6 3.3 71 12.8
2004-06-25 07:26:53 51°16.718 2°55.508 89 3.4 85 12.7
2004-06-25 07:27:50 51°16.724 2°55.59 96.3 3.2 80 12.6
2004-06-25 07:28:52 51°16.726 2°55.68 100.1 3.3 92 12.6
2004-06-25 07:29:53 51°16.725 2°55.766 103.6 3.1 89 12.4
2004-06-25 07:30:53 51°16.725 2°55.846 98.7 3 84 12.2
2004-06-25 07:31:53 51°16.729 2°55.928 92.9 3.2 80 11.9
2004-06-25 07:32:53 51°16.736 2°56.013 88.6 3.1 76 11.7
2004-06-25 07:33:53 51°16.745 2°56.092 83.2 3 78 11.9
2004-06-25 07:34:51 51°16.758 2°56.166 71.2 3 77 11.9
2004-06-25 07:35:53 51°16.777 2°56.241 71.8 2.8 69 11.9
2004-06-25 07:36:56 51°16.796 2°56.316 66.2 2.8 66 12
2004-06-25 07:37:57 51°16.816 2°56.387 66.2 2.9 74 11.6
2004-06-25 07:38:57 51°16.831 2°56.451 66.6 2.4 67 11.7
2004-06-25 07:39:57 51°16.847 2°56.511 63 2.3 58 11.2
2004-06-25 07:40:57 51°16.865 2°56.574 61 2.8 77 11.7
2004-06-25 07:41:57 51°16.885 2°56.637 65.6 2.7 68 11.6
2004-06-25 07:42:57 51°16.897 2°56.701 79.9 2.6 80 11.8
2004-06-25 07:43:57 51°16.901 2°56.777 98.6 3.1 96 11.7
2004-06-25 07:44:57 51°16.895 2°56.85 111 2.5 104 11.1
2004-06-25 07:45:57 51°16.885 2°56.915 123.8 2.4 107 11.1
2004-06-25 07:46:57 51°16.869 2°56.968 141.6 2 125 11
2004-06-25 07:47:57 51°16.851 2°57.006 163.1 1.5 136 11
2004-06-25 07:48:56 51°16.827 2°57.031 185.9 2.1 161 10.9
2004-06-25 07:49:57 51°16.788 2°57.031 208.9 2.3 191 10.8
2004-06-25 07:50:56 51°16.76 2°57.015 226.9 1.6 182 10.7
2004-06-25 07:51:57 51°16.746 2°57.014 227.9 0.7 167 11.2
2004-06-25 07:52:57 51°16.738 2°57.022 228.4 0.4 131 11
2004-06-25 07:53:57 51°16.733 2°57.039 222.7 0.8 105 10.9
2004-06-25 07:54:56 51°16.729 2°57.061 210.5 1 102 11.1
2004-06-25 07:55:57 51°16.727 2°57.084 204.4 0.6 86 11.1
2004-06-25 07:56:57 51°16.725 2°57.109 193.6 1 89 11.1
2004-06-25 07:57:57 51°16.723 2°57.133 191.5 1 98 11.1
2004-06-25 07:58:57 51°16.72 2°57.156 193.2 0.6 108 11.1
2004-06-25 07:59:57 51°16.715 2°57.176 197.4 0.9 105 10.9
2004-06-25 08:00:57 51°16.711 2°57.196 198.8 0.8 103 11.2
2004-06-25 08:01:57 51°16.71 2°57.219 192.4 1.1 93 11.3
2004-06-25 08:02:56 51°16.705 2°57.238 193.3 0.9 113 11.3
2004-06-25 08:03:57 51°16.697 2°57.256 197.4 1 167 11.1
2004-06-25 08:04:57 51°16.671 2°57.243 229.7 2.1 224 11.4
2004-06-25 08:05:56 51°16.652 2°57.189 261.2 2.6 257 11.1
2004-06-25 08:06:57 51°16.647 2°57.123 272.3 2.5 265 11
2004-06-25 08:07:56 51°16.652 2°57.053 280.2 2.7 277 11
2004-06-25 08:08:57 51°16.657 2°56.977 275.3 2.9 275 11.2
2004-06-25 08:09:57 51°16.653 2°56.912 263.2 2.4 262 10.8
2004-06-25 08:10:57 51°16.652 2°56.849 282.3 2.4 285 11.1
2004-06-25 08:11:57 51°16.665 2°56.795 291.7 2 297 11
2004-06-25 08:12:57 51°16.685 2°56.743 297.7 2.6 303 11.1
2004-06-25 08:13:56 51°16.709 2°56.681 296.2 2.9 301 11
2004-06-25 08:14:57 51°16.732 2°56.614 296.3 2.8 300 11.1
2004-06-25 08:15:57 51°16.752 2°56.557 295.7 2.6 300 11.1
2004-06-25 08:16:57 51°16.778 2°56.502 302.2 2.7 301 11.2
2004-06-25 08:17:57 51°16.804 2°56.442 301.2 3 304 11.3
2004-06-25 08:18:57 51°16.83 2°56.394 306.3 2.3 310 11.2
2004-06-25 08:19:57 51°16.858 2°56.341 302.2 2.7 301 11.1
2004-06-25 08:20:57 51°16.882 2°56.275 297.8 3 299 11.3
2004-06-25 08:21:57 51°16.907 2°56.211 298.2 2.8 298 11.2
2004-06-25 08:22:57 51°16.933 2°56.148 301.9 2.9 302 11.5
2004-06-25 08:23:57 51°16.958 2°56.085 299 3 299 11.7
2004-06-25 08:24:57 51°16.982 2°56.018 296.9 3 295 11.5
2004-06-25 08:25:57 51°17.004 2°55.946 295.4 3.1 295 11.6
2004-06-25 08:26:57 51°17.024 2°55.875 295 2.6 296 11.5
2004-06-25 08:27:57 51°17.041 2°55.814 290.8 2.2 282 11.6
2004-06-25 08:28:56 51°17.051 2°55.753 289.7 2.8 299 12
2004-06-25 08:29:56 51°17.07 2°55.69 299.9 2.4 301 11.6
2004-06-25 08:30:57 51°17.094 2°55.641 310.7 2.3 316 12
2004-06-25 08:31:57 51°17.13 2°55.604 325.6 2.5 341 11.6
2004-06-25 08:32:56 51°17.167 2°55.572 326.4 2.8 330 12.2
2004-06-25 08:33:57 51°17.209 2°55.541 335.7 2.8 347 11.7
2004-06-25 08:34:57 51°17.255 2°55.524 346.2 3.1 353 12
2004-06-25 08:35:56 51°17.307 2°55.515 353.7 3.2   11.6
2004-06-25 08:36:57 51°17.358 2°55.52 1.4 2.5 6 11.2
2004-06-25 08:37:57 51°17.387 2°55.532 5.8 1.3 32 11
2004-06-25 08:38:56 51°17.403 2°55.549 8.7 1 45 11.2
2004-06-25 08:39:57 51°17.419 2°55.566 16.7 1.8 21 11
2004-06-25 08:40:57 51°17.467 2°55.685 86.3 8.3 84 10.9
2004-06-25 08:41:57 51°17.361 2°55.821 177.4 9.9 181 11.6
2004-06-25 08:42:56 51°17.253 2°55.659 244.8 11 238 11.9
2004-06-25 08:43:57 51°17.143 2°55.368 245.2 13.1 237 11.8
2004-06-25 08:44:57 51°17.06 2°55.047 256 13 252 11.8
2004-06-25 08:45:56 51°16.985 2°54.729 255 13.1 250 12.1
2004-06-25 08:46:57 51°16.929 2°54.389 267.9 13.2 263 12.1
2004-06-25 08:47:57 51°16.913 2°54.04 272.1 13.1 267 11.6
2004-06-25 08:48:56 51°16.894 2°53.703 270.7 13 264 11.1
2004-06-25 08:49:57 51°16.885 2°53.351 277.2 13.2 271 10.7
2004-06-25 08:51:01 51°16.947 2°53.008 308.4 12.7 305 8.7
2004-06-25 08:52:01 51°17.082 2°52.732 314.1 13.3 308 11
2004-06-25 08:53:02 51°17.22 2°52.455 314.1 13.3 309 10.4
2004-06-25 08:54:02 51°17.37 2°52.209 322.2 12.9 317 11.2
2004-06-25 08:55:02 51°17.527 2°51.973 322.9 12.9 316 11.1
2004-06-25 08:56:00 51°17.683 2°51.755 325 12.8 318 10.4
2004-06-25 08:57:00 51°17.852 2°51.542 330.8 13.2 325 10.6
2004-06-25 08:58:01 51°18.033 2°51.335 330.4 13.2 324 11.9
2004-06-25 08:59:06 51°18.226 2°51.114 329.9 13.2 324 13.2
2004-06-25 09:00:06 51°18.399 2°50.918 330.3 10.9 327 14.3
2004-06-25 09:01:06 51°18.498 2°50.905 17.5 3.5 15 14.8
2004-06-25 09:02:06 51°18.507 2°50.92 37.8 0.5 80 14.2
2004-06-25 09:03:06 51°18.512 2°50.933 25.4 0.4 61 14.6
2004-06-25 09:04:06 51°18.518 2°50.945 13.4 0.7 53 14.8
2004-06-25 09:05:06 51°18.549 2°50.958 7.4 2.5 8 14.4
2004-06-25 09:06:06 51°18.601 2°50.978 23.2 3.5 20 14.6
2004-06-25 09:07:06 51°18.646 2°51.017 30.8 2.8 29 14.8
2004-06-25 09:08:06 51°18.687 2°51.055 29.8 2.8 28 15
2004-06-25 09:09:06 51°18.727 2°51.092 34.4 2.8 31 14.9
2004-06-25 09:10:06 51°18.765 2°51.141 45.1 3.1 44 15
2004-06-25 09:11:06 51°18.797 2°51.198 50.8 2.9 50 15.3
2004-06-25 09:12:06 51°18.83 2°51.256 48.7 2.9 52 15
2004-06-25 09:13:06 51°18.863 2°51.311 47 2.9 44 15.1
2004-06-25 09:14:06 51°18.897 2°51.363 43.1 2.8 42 15.2
2004-06-25 09:15:06 51°18.929 2°51.415 45.6 2.9 42 14.9
2004-06-25 09:16:06 51°18.961 2°51.467 45.3 2.8 44 15.4
2004-06-25 09:17:06 51°18.993 2°51.52 45.7 2.7 45 15.4
2004-06-25 09:18:08 51°19.025 2°51.574 47.1 2.8 44 15.7
2004-06-25 09:19:09 51°19.059 2°51.63 46.5 2.9 47 15.6
2004-06-25 09:20:09 51°19.089 2°51.687 47.9 2.8 49 15.9
2004-06-25 09:21:09 51°19.118 2°51.745 50 2.7 50 15.6
2004-06-25 09:22:09 51°19.149 2°51.803 50.5 2.7 47 15.4
2004-06-25 09:23:09 51°19.181 2°51.863 50.2 2.8 47 14.9
2004-06-25 09:24:09 51°19.213 2°51.921 48 2.8 45 15.8
2004-06-25 09:25:09 51°19.244 2°51.978 47.2 2.9 47 15.8
2004-06-25 09:26:09 51°19.276 2°52.035 48.5 2.8 56 15.6
2004-06-25 09:27:09 51°19.308 2°52.09 47.1 2.8 45 15.7
2004-06-25 09:28:09 51°19.341 2°52.142 44.3 2.9 42 15.8
2004-06-25 09:29:09 51°19.375 2°52.196 44.9 2.9 49 15.8
2004-06-25 09:30:09 51°19.408 2°52.252 48.6 2.9 53 15.8
2004-06-25 09:31:09 51°19.436 2°52.314 53.3 2.8 65 15
2004-06-25 09:32:09 51°19.465 2°52.373 49.3 2.8 50 15.8
2004-06-25 09:33:09 51°19.497 2°52.427 44.3 2.9 38 15.6
2004-06-25 09:34:09 51°19.531 2°52.477 43.3 2.8 38 15.6
2004-06-25 09:35:09 51°19.563 2°52.531 49.6 2.7 45 16
2004-06-25 09:36:09 51°19.585 2°52.594 69.9 2.7 78 15.7
2004-06-25 09:37:09 51°19.586 2°52.663 95.9 2.3 96 15.7
2004-06-25 09:38:08 51°19.574 2°52.715 115 2.1 122 15.5
2004-06-25 09:39:08 51°19.555 2°52.754 137.3 1.8 144 15.4
2004-06-25 09:40:09 51°19.532 2°52.776 158.4 1.8 152 15.1
2004-06-25 09:41:09 51°19.491 2°52.777 195.9 3 192 15
2004-06-25 09:42:09 51°19.444 2°52.752 203.8 3.2 199 14.9
2004-06-25 09:43:09 51°19.394 2°52.721 208.3 3.2 203 14.6
2004-06-25 09:44:09 51°19.345 2°52.681 215.2 3.3 209 14.2
2004-06-25 09:45:08 51°19.3 2°52.64 218.7 2.9 210 14.5
2004-06-25 09:46:09 51°19.258 2°52.592 222.1 3.1 218 14.1
2004-06-25 09:47:16 51°19.213 2°52.538 226.3 3 217 14.1
2004-06-25 09:48:16 51°19.175 2°52.486 228.9 2.9 221 14
2004-06-25 09:49:16 51°19.136 2°52.437 226.9 3.1 216 14.1
2004-06-25 09:50:17 51°19.097 2°52.386 224 3 222 14.2
2004-06-25 09:51:17 51°19.059 2°52.344 223.5 2.9 217 14.1
2004-06-25 09:52:16 51°19.02 2°52.3 222.9 2.9 217 13.7
2004-06-25 09:53:17 51°18.978 2°52.254 220.3 2.9 213 12.9
2004-06-25 09:54:17 51°18.936 2°52.212 219.8 3 211 13.4
2004-06-25 09:55:17 51°18.894 2°52.17 220.5 2.9 210 13.5
2004-06-25 09:56:17 51°18.854 2°52.125 225.1 2.9 215 13.5
2004-06-25 09:57:17 51°18.818 2°52.077 232 2.7 219 13.3
2004-06-25 09:58:17 51°18.786 2°52.025 238 2.8 238 13.3
2004-06-25 09:59:17 51°18.756 2°51.967 240.9 2.7 235 13.3
2004-06-25 10:00:17 51°18.725 2°51.913 240.5 2.8 225 13.4
2004-06-25 10:01:17 51°18.694 2°51.858 240.9 2.8 235 13.4
2004-06-25 10:02:16 51°18.665 2°51.796 246.2 3 231 13.3
2004-06-25 10:03:17 51°18.638 2°51.728 248.8 2.9 234 13.2
2004-06-25 10:04:16 51°18.609 2°51.666 245 2.9 229 13.3
2004-06-25 10:05:17 51°18.58 2°51.606 244.2 2.8 232 13.5
2004-06-25 10:06:17 51°18.551 2°51.549 242 2.8 223 13.4
2004-06-25 10:07:28 51°18.512 2°51.483 238.2 3 223 13.2
2004-06-25 10:08:28 51°18.48 2°51.426 242.5 2.7 233 13.4
2004-06-25 10:09:27 51°18.451 2°51.369 245.3 2.8 233 13.2
2004-06-25 10:10:26 51°18.423 2°51.31 245.3 3 230 13.1
2004-06-25 10:11:25 51°18.395 2°51.252 244.7 2.8 239 13.6
2004-06-25 10:12:28 51°18.366 2°51.189 248.9 2.1 231 13
2004-06-25 10:13:29 51°18.345 2°51.158 247.4 1.7 214 13.4
2004-06-25 10:14:28 51°18.334 2°51.052 293.3 6.1 290 13.3
2004-06-25 10:15:29 51°18.433 2°51.003 24.9 7.4 26 13.3
2004-06-25 10:16:29 51°18.517 2°51.224 68 12.2 66 13.4
2004-06-25 10:17:29 51°18.61 2°51.526 70.3 12.7 63 13.4
2004-06-25 10:18:30 51°18.705 2°51.837 67.9 12.8 65 13
2004-06-25 10:19:30 51°18.798 2°52.14 69.5 12.8 61 12.6
2004-06-25 10:20:28 51°18.885 2°52.433 69.8 12.8 61 12.4
2004-06-25 10:21:30 51°18.984 2°52.747 67.8 13.1 66 12.3
2004-06-25 10:22:30 51°19.083 2°53.052 70.4 13 63 12.2
2004-06-25 10:23:30 51°19.175 2°53.36 70.9 12.8 66 11.9
2004-06-25 10:24:30 51°19.267 2°53.66 69.8 12.8 63 11.8
2004-06-25 10:25:30 51°19.357 2°53.97 71.1 13.2 66 12.1
2004-06-25 10:26:30 51°19.452 2°54.272 71.2 12.8 59 12
2004-06-25 10:27:30 51°19.548 2°54.58 69.5 12.8 71 12.1
2004-06-25 10:28:30 51°19.649 2°54.879 68.7 13.2 57 11.9
2004-06-25 10:29:35 51°19.742 2°55.209 72.3 12.7 69 12
2004-06-25 10:30:36 51°19.821 2°55.526 75.5 13 71 11.9
2004-06-25 10:31:34 51°19.9 2°55.827 72.3 12.8 66 12.1
2004-06-25 10:32:36 51°19.986 2°56.148 74 12.7 68 11.9
2004-06-25 10:33:36 51°20.066 2°56.457 73.5 12.6 69 11.5
2004-06-25 10:34:36 51°20.148 2°56.77 71.8 13 67 11.7
2004-06-25 10:35:34 51°20.236 2°57.068 71.6 13.1 64 11.6
2004-06-25 10:36:35 51°20.32 2°57.38 73.2 12.1 67 11.7
2004-06-25 10:37:35 51°20.398 2°57.69 73.6 12.5 69 11.3
2004-06-25 10:38:34 51°20.472 2°57.994 75.6 12.4 62 11.3
2004-06-25 10:39:34 51°20.556 2°58.296 70.9 12.6 67 11.1
2004-06-25 10:40:36 51°20.641 2°58.612 71 12.5 65 11.1
2004-06-25 10:41:36 51°20.726 2°58.916 68.8 12.5 68 11
2004-06-25 10:42:35 51°20.805 2°59.216 70.4 12.6 66 11.1
2004-06-25 10:43:36 51°20.884 2°59.533 76 12.7 70 10.7
2004-06-25 10:44:36 51°20.959 2°59.816 71.9 8.9 71 10.9
2004-06-25 10:45:36 51°21.021 2°59.911 38 3.7 31 10.7
2004-06-25 10:46:34 51°21.052 2°59.934 42.8 1.3 30 11.3
2004-06-25 10:47:35 51°21.068 2°59.943 31 0.8 359 11.3
2004-06-25 10:48:36 51°21.088 2°59.943 17.8 1.8 5 11
2004-06-25 10:49:40 51°21.119 2°59.958 35.6 1.3 29 11.3
2004-06-25 10:50:40 51°21.133 2°59.966 30.2 0.5 14 11.1
2004-06-25 10:51:40 51°21.145 2°59.972 34.1 1.5 17 11.3
2004-06-25 10:52:40 51°21.174 3°0.019 65.9 2.8 60 11.4
2004-06-25 10:53:40 51°21.181 3°0.09 82.1 2.6 83 10.9
2004-06-25 10:54:40 51°21.186 3°0.16 76.9 2.7 86 11.2
2004-06-25 10:55:40 51°21.198 3°0.224 69 2.5 67 11.2
2004-06-25 10:56:45 51°21.219 3°0.287 57.5 2.5 57 11.1
2004-06-25 10:57:45 51°21.246 3°0.333 47.3 2.2 47 10.7
2004-06-25 10:58:44 51°21.277 3°0.371 44.2 2.5 38 11.2
2004-06-25 10:59:49 51°21.315 3°0.416 44 2.9 36 11.5
2004-06-25 11:00:49 51°21.351 3°0.467 51.9 3 45 11.1
2004-06-25 11:01:48 51°21.376 3°0.53 64.7 2.9 68 11.2
2004-06-25 11:02:49 51°21.393 3°0.603 67.6 2.8 68 11.5
2004-06-25 11:03:49 51°21.412 3°0.672 63.6 2.8 70 11.1
2004-06-25 11:04:49 51°21.435 3°0.734 57.4 2.8 53 11.2
2004-06-25 11:05:48 51°21.465 3°0.788 50.4 2.8 39 11.2
2004-06-25 11:06:48 51°21.496 3°0.84 48.2 2.7 41 11.3
2004-06-25 11:07:49 51°21.531 3°0.891 51.1 2.8 49 11.2
2004-06-25 11:08:49 51°21.555 3°0.954 60.2 2.8 63 11.4
2004-06-25 11:09:49 51°21.582 3°1.018 56.1 2.9 51 11.5
2004-06-25 11:10:49 51°21.612 3°1.075 47.9 2.8 44 11.5
2004-06-25 11:11:49 51°21.65 3°1.12 40.4 2.9 32 11.4
2004-06-25 11:12:49 51°21.687 3°1.166 45.2 2.9 48 11.2
2004-06-25 11:13:48 51°21.718 3°1.22 52.1 2.8 45 11.6
2004-06-25 11:14:49 51°21.744 3°1.285 61.1 2.8 65 11.1
2004-06-25 11:15:49 51°21.761 3°1.354 66.4 2.8 72 11.5
2004-06-25 11:16:49 51°21.78 3°1.422 63.6 2.8 66 11.4
2004-06-25 11:17:49 51°21.802 3°1.486 59.2 2.7 56 11.3
2004-06-25 11:18:49 51°21.829 3°1.546 52.4 2.8 61 11
2004-06-25 11:19:48 51°21.858 3°1.6 49.5 2.7 45 11.4
2004-06-25 11:20:57 51°21.898 3°1.654 41.7 2.9 41 11.1
2004-06-25 11:21:57 51°21.935 3°1.697 41.3 2.8 40 11.4
2004-06-25 11:22:58 51°21.963 3°1.752 65.3 2.7 67 11.4
2004-06-25 11:23:57 51°21.956 3°1.83 108.5 3.3 115 11.5
2004-06-25 11:24:54 51°21.924 3°1.878 133.9 2.6 149 11.4
2004-06-25 11:26:07 51°21.88 3°1.9 157.5 2.4 182 11.5
2004-06-25 11:27:08 51°21.839 3°1.895 181.4 3.4 192 11.5
2004-06-25 11:28:08 51°21.787 3°1.852 223 3.5 215 11.1
2004-06-25 11:29:07 51°21.752 3°1.793 241.2 2.8 223 11
2004-06-25 11:30:08 51°21.721 3°1.74 240.5 2.5 228 11.2
2004-06-25 11:31:08 51°21.691 3°1.684 242.4 2.8 228 11.4
2004-06-25 11:32:16 51°21.656 3°1.62 240.9 2.9 219 11.3
2004-06-25 11:33:17 51°21.624 3°1.563 240.6 3 230 11.4
2004-06-25 11:34:17 51°21.592 3°1.5 243.1 3.1 236 11.4
2004-06-25 11:35:17 51°21.56 3°1.439 242 3.1 228 11
2004-06-25 11:36:17 51°21.527 3°1.374 244 3.1 235 11.2
2004-06-25 11:37:23 51°21.493 3°1.3 248 3.1 228 11.3
2004-06-25 11:38:22 51°21.464 3°1.238 245.4 3 235 11.2
2004-06-25 11:39:22 51°21.432 3°1.175 244.6 3.1 237 11.3
2004-06-25 11:40:22 51°21.401 3°1.112 244.2 2.9 232 11.1
2004-06-25 11:41:22 51°21.369 3°1.046 245.3 3.2 231 11.1
2004-06-25 11:42:22 51°21.337 3°0.978 245.8 3.2 235 11.2
2004-06-25 11:43:20 51°21.307 3°0.914 248.4 3 224 11.3
2004-06-25 11:44:21 51°21.276 3°0.854 244.1 2.9 230 11
2004-06-25 11:45:22 51°21.242 3°0.788 243.5 3.2 235 11.1
2004-06-25 11:46:22 51°21.208 3°0.718 246.8 3.4 228 10.9
2004-06-25 11:47:22 51°21.176 3°0.647 247.6 3.2 239 11.3
2004-06-25 11:48:20 51°21.147 3°0.578 250.3 3.2 234 11
2004-06-25 11:49:21 51°21.114 3°0.513 246.3 3.2 235 11
2004-06-25 11:50:22 51°21.081 3°0.447 246 3.2 235 11.1
2004-06-25 11:51:22 51°21.048 3°0.381 244.1 3.3 232 10.8
2004-06-25 11:52:21 51°21.014 3°0.319 244.8 3 234 11.3
2004-06-25 11:53:22 51°20.981 3°0.252 248.7 3.2 241 11.2
2004-06-25 11:54:22 51°20.951 3°0.183 254.5 3.3 236 11.1
2004-06-25 11:55:22 51°20.925 3°0.109 261.9 3.2 246 11
2004-06-25 11:56:21 51°20.907 3°0.03 272.7 3.2 252 11
2004-06-25 11:57:21 51°20.895 2°59.952 283.9 3.1 262 11.1
2004-06-25 11:58:21 51°20.885 2°59.893 293.1 1.9 252 10.9
2004-06-25 11:59:22 51°20.873 2°59.865 306 1 217 11.2
2004-06-25 12:00:20 51°20.868 2°59.848 341 1.7 318 11
2004-06-25 12:01:21 51°20.951 2°59.841 20.8 8.3 13 10.6
2004-06-25 12:02:22 51°21.112 2°59.993 47.9 11.9 46 11.3
2004-06-25 12:03:21 51°21.249 3°0.217 53.2 12.2 51 11.3
2004-06-25 12:04:21 51°21.378 3°0.466 56.9 12.4 56 11.1
2004-06-25 12:05:21 51°21.506 3°0.716 56.1 12.1 48 11.1
2004-06-25 12:06:22 51°21.634 3°0.976 55.5 12.2 51 11.1
2004-06-25 12:07:22 51°21.762 3°1.227 57.8 12.3 55 11.3
2004-06-25 12:08:20 51°21.883 3°1.473 55.8 12.1 51 11.3
2004-06-25 12:09:20 51°22.009 3°1.725 55.7 12.4 49 11.4
2004-06-25 12:10:20 51°22.137 3°1.98 58.3 12.3 59 11.2
2004-06-25 12:11:21 51°22.268 3°2.241 59.2 12.7 48 11
2004-06-25 12:12:20 51°22.397 3°2.493 57.6 12.4 56 11.2
2004-06-25 12:13:21 51°22.526 3°2.751 57.5 12.1 48 11.2
2004-06-25 12:14:22 51°22.675 3°2.986 51.7 12.4 42 10.4
2004-06-25 12:15:22 51°22.824 3°3.208 51.1 12.4 42 10.3
2004-06-25 12:16:22 51°22.98 3°3.428 49.6 12.8 44 11.4
2004-06-25 12:17:20 51°23.134 3°3.631 42 12.4 36 12
2004-06-25 12:18:19 51°23.317 3°3.779 29.7 12.5 21 12.1
2004-06-25 12:19:24 51°23.525 3°3.914 31.4 12.6 24 12.6
2004-06-25 12:20:26 51°23.721 3°4.047 31.9 12.3 20 12.5
2004-06-25 12:21:25 51°23.909 3°4.173 31.9 12.6 23 13.5
2004-06-25 12:22:25 51°24.039 3°4.376 90.1 11.6 90 14.6
2004-06-25 12:23:23 51°24.027 3°4.693 93.6 12.4 88 15.5
2004-06-25 12:24:25 51°24.018 3°5.034 95.3 12.2 92 17.5
2004-06-25 12:25:26 51°24.007 3°5.371 93.4 12.1 96 18.1
2004-06-25 12:26:24 51°24.03 3°5.69 77.6 12.5 69 17.9
2004-06-25 12:27:25 51°24.199 3°5.85 22 12.7 17 16.4
2004-06-25 12:28:26 51°24.403 3°5.959 29.1 12.4 26 13.2
2004-06-25 12:29:26 51°24.588 3°6.119 35.6 13 30 12.7
2004-06-25 12:30:25 51°24.768 3°6.28 35.8 12.6 32 11.8
2004-06-25 12:31:26 51°24.952 3°6.447 36.8 12.7 32 10.8
2004-06-25 12:32:26 51°25.133 3°6.605 35.1 12.4 25 9.8
2004-06-25 12:33:26 51°25.31 3°6.774 39.1 12.7 33 9.8
2004-06-25 12:34:24 51°25.466 3°6.962 40.6 12.2 40 10
2004-06-25 12:35:26 51°25.633 3°7.164 43.2 12.4 37 9.9
2004-06-25 12:36:24 51°25.792 3°7.354 39.5 12.6 34 9.7
2004-06-25 12:37:25 51°25.963 3°7.547 40 12.1 36 9.2
2004-06-25 12:38:25 51°26.127 3°7.741 40.3 12.9 29 8.9
2004-06-25 12:39:26 51°26.28 3°7.967 49.4 12.3 47 9.7
2004-06-25 12:40:26 51°26.403 3°8.141 30.6 6 24 10.4
2004-06-25 12:41:26 51°26.434 3°8.163 29 0.8 40 10.7
2004-06-25 12:42:26 51°26.442 3°8.182 23.9 2.1 38 10.8
2004-06-25 12:43:25 51°26.482 3°8.217 29 3.1 33 10.9
2004-06-25 12:44:26 51°26.517 3°8.269 39.1 2.8 49 10.8
2004-06-25 12:45:26 51°26.547 3°8.326 40 2.9 54 11.1
2004-06-25 12:46:26 51°26.578 3°8.378 36.6 2.6 43 11.1
2004-06-25 12:47:33 51°26.613 3°8.432 34.4 2.5 46 11.1
2004-06-25 12:48:32 51°26.646 3°8.479 33.6 3 35 11.3
2004-06-25 12:49:32 51°26.686 3°8.537 38.5 3.2 44 11.5
2004-06-25 12:50:33 51°26.722 3°8.593 34.5 2.8 42 11.5
2004-06-25 12:51:33 51°26.76 3°8.639 27.3 3 36 11.9
2004-06-25 12:52:32 51°26.797 3°8.671 21.1 2.4 19 11.9
2004-06-25 12:53:32 51°26.832 3°8.7 25.6 2.5 34 11.8
2004-06-25 12:54:33 51°26.865 3°8.751 41.2 2.8 45 11.7
2004-06-25 12:55:33 51°26.897 3°8.811 40.2 3.1 47 11.8
2004-06-25 12:56:32 51°26.929 3°8.868 38.4 2.8 44 11.6
2004-06-25 12:57:32 51°26.963 3°8.92 34.1 2.8 47 11.5
2004-06-25 12:58:33 51°27 3°8.968 29 2.9 35 11.8
2004-06-25 12:59:33 51°27.039 3°9.004 25.8 2.7 40 11.6
2004-06-25 13:00:32 51°27.075 3°9.053 37.7 3 47 11.6
2004-06-25 13:01:32 51°27.107 3°9.118 47.3 3.1 57 11
2004-06-25 13:02:33 51°27.132 3°9.193 51.7 3.2 65 11.1
2004-06-25 13:03:33 51°27.157 3°9.267 50.6 3.3 62 10.9
2004-06-25 13:04:33 51°27.184 3°9.336 46.3 3.1 52 10.8
2004-06-25 13:05:33 51°27.214 3°9.403 46 3.1 53 11
2004-06-25 13:06:32 51°27.243 3°9.469 45.7 3 56 11.1
2004-06-25 13:07:33 51°27.271 3°9.543 50.7 3 54 11.3
2004-06-25 13:08:32 51°27.293 3°9.617 50.7 3.1 66 11.1
2004-06-25 13:09:32 51°27.321 3°9.683 44.2 3 44 11.4
2004-06-25 13:10:32 51°27.352 3°9.743 38.4 2.8 41 11.6
2004-06-25 13:11:33 51°27.388 3°9.792 29.4 2.8 38 11.7
2004-06-25 13:12:32 51°27.425 3°9.831 25.6 2.6 33 11.4
2004-06-25 13:13:32 51°27.458 3°9.887 44.2 3 54 11.4
2004-06-25 13:14:33 51°27.479 3°9.963 68.6 3.3 83 11.4
2004-06-25 13:15:32 51°27.474 3°10.032 84.8 2.5 106 11.2
2004-06-25 13:16:33 51°27.461 3°10.089 87.1 2 110 11.3
2004-06-25 13:17:33 51°27.446 3°10.138 90.9 2 122 11.1
2004-06-25 13:18:33 51°27.425 3°10.197 109.4 3.7 128 11.1
2004-06-25 13:19:33 51°27.369 3°10.257 156.5 4.4 164 11
2004-06-25 13:20:32 51°27.306 3°10.262 191.8 3.5 183 10.9
2004-06-25 13:21:33 51°27.256 3°10.25 207.1 2.7 192 11
2004-06-25 13:22:32 51°27.214 3°10.233 217 2.7 191 10.8
2004-06-25 13:23:32 51°27.172 3°10.206 223.5 2.7 210 10.9
2004-06-25 13:24:33 51°27.127 3°10.176 226.2 2.9 203 10.5
2004-06-25 13:25:33 51°27.084 3°10.139 230 2.7 221 10.6
2004-06-25 13:26:33 51°27.042 3°10.104 234.4 2.7 211 10.7
2004-06-25 13:27:32 51°27.005 3°10.064 242.4 2.8 216 10.6
2004-06-25 13:28:33 51°26.97 3°10.013 249.7 2.9 221 10.3
2004-06-25 13:29:32 51°26.941 3°9.96 256.9 2.5 234 10.5
2004-06-25 13:30:32 51°26.914 3°9.904 261.3 2.8 227 10.4
2004-06-25 13:31:33 51°26.886 3°9.85 259.1 2.8 223 10.3
2004-06-25 13:32:33 51°26.862 3°9.795 264.9 2.5 238 10.3
2004-06-25 13:33:32 51°26.841 3°9.729 271.4 2.9 251 10.8
2004-06-25 13:34:32 51°26.827 3°9.654 280.8 2.7 262 10.6
2004-06-25 13:35:32 51°26.817 3°9.581 282.8 2.8 260 10.6
2004-06-25 13:36:32 51°26.808 3°9.51 281.2 2.8 257 10.7
2004-06-25 13:37:33 51°26.797 3°9.44 280 2.4 254 10.4
2004-06-25 13:38:33 51°26.784 3°9.377 277.7 2.6 249 10.8
2004-06-25 13:39:32 51°26.768 3°9.307 274.3 2.6 253 10.7
2004-06-25 13:40:32 51°26.752 3°9.237 273.7 2.9 248 10.7
2004-06-25 13:41:33 51°26.733 3°9.162 269.7 3 248 11
2004-06-25 13:42:32 51°26.711 3°9.089 265 3.3 240 11.2
2004-06-25 13:43:33 51°26.679 3°9.015 254.6 3.3 231 11.2
2004-06-25 13:44:33 51°26.642 3°8.952 246.6 3.2 225 11.2
2004-06-25 13:45:33 51°26.6 3°8.895 242.6 3.5 219 11.9
2004-06-25 13:46:33 51°26.56 3°8.831 250.8 3.5 226 11.5
2004-06-25 13:47:33 51°26.529 3°8.759 263.3 3.1 240 11.4
2004-06-25 13:48:33 51°26.507 3°8.691 274.2 2.5 236 11.3
2004-06-25 13:49:33 51°26.49 3°8.652 281.9 1.3 227 11.2
2004-06-25 13:50:33 51°26.471 3°8.589 265.2 5.2 250 11.2
2004-06-25 13:51:33 51°26.406 3°8.34 252.5 13.2 242 10.9
2004-06-25 13:52:33 51°26.249 3°8.072 234.2 13.8 220 10
2004-06-25 13:53:33 51°26.072 3°7.824 227.7 13.9 217 9.6
2004-06-25 13:54:33 51°25.888 3°7.583 225.7 14.3 223 9.7
2004-06-25 13:55:33 51°25.706 3°7.342 226.8 13.9 220 10.1
2004-06-25 13:56:33 51°25.525 3°7.099 227.1 14.1 221 10.2
2004-06-25 13:57:32 51°25.347 3°6.862 222.6 14.4 216 10.1
2004-06-25 13:58:38 51°25.15 3°6.591 227.1 14.3 222 10.3
2004-06-25 13:59:38 51°24.971 3°6.345 228.6 14.3 222 11.4
2004-06-25 14:00:38 51°24.792 3°6.097 226.3 13.9 222 12.3
2004-06-25 14:01:38 51°24.613 3°5.852 226 14.1 216 12.9
2004-06-25 14:02:38 51°24.436 3°5.608 227 14 218 12.8
2004-06-25 14:03:44 51°24.242 3°5.334 225.3 14.2 219 18.3
2004-06-25 14:04:44 51°24.066 3°5.087 225.5 14.1 216 19
2004-06-25 14:05:44 51°23.893 3°4.844 227.2 13.7 222 14.6
2004-06-25 14:06:49 51°23.705 3°4.58 227.3 13.9 220 13.3
2004-06-25 14:07:49 51°23.531 3°4.334 225 14.1 224 13.4
2004-06-25 14:08:54 51°23.343 3°4.069 226.3 13.9 219 11.3
2004-06-25 14:09:54 51°23.173 3°3.812 227 14.1 224 12.6
2004-06-25 14:10:54 51°22.998 3°3.56 225.1 14.4 220 12.4
2004-06-25 14:11:54 51°22.825 3°3.305 226.5 14.3 221 12.1
2004-06-25 14:12:54 51°22.652 3°3.051 227.2 14.2 219 11.5
2004-06-25 14:13:54 51°22.479 3°2.792 229.3 14.2 223 11.9
2004-06-25 14:14:54 51°22.304 3°2.538 226.5 14.3 218 11.8
2004-06-25 14:15:54 51°22.131 3°2.281 229.7 13.4 220 12.3
2004-06-25 14:16:54 51°21.957 3°2.026 224.8 14.3 223 12
2004-06-25 14:17:54 51°21.782 3°1.778 226.4 14.1 221 12
2004-06-25 14:18:54 51°21.61 3°1.523 225 14.4 222 12
2004-06-25 14:19:54 51°21.438 3°1.274 224.6 14.3 222 11.7
2004-06-25 14:20:54 51°21.284 3°0.997 233.6 13.9 231 11.9
2004-06-25 14:21:54 51°21.131 3°0.717 231.9 14.4 227 11.6
2004-06-25 14:22:54 51°20.977 3°0.438 231.5 13.9 231 11.6
2004-06-25 14:23:54 51°20.824 3°0.155 234 13.9 229 11.5
2004-06-25 14:24:54 51°20.676 2°59.868 233.5 13.8 229 11.2
2004-06-25 14:25:53 51°20.529 2°59.586 232.9 14.2 232 11.3
2004-06-25 14:26:54 51°20.372 2°59.297 231.8 14.3 227 11.4
2004-06-25 14:27:53 51°20.222 2°59.017 232.4 14.1 226 11.1
2004-06-25 14:28:54 51°20.07 2°58.722 233.7 14.3 234 11.1
2004-06-25 14:29:54 51°19.92 2°58.432 234.7 14.1 231 10.9
2004-06-25 14:30:54 51°19.769 2°58.138 233.8 14.4 229 10.9
2004-06-25 14:31:54 51°19.619 2°57.846 234.3 14.4 227 10.9
2004-06-25 14:32:54 51°19.47 2°57.552 233.8 14.3 232 10.9
2004-06-25 14:33:54 51°19.319 2°57.263 234.7 14 229 10.7
2004-06-25 14:34:54 51°19.169 2°56.97 234.3 14.1 227 10.5
2004-06-25 14:35:54 51°19.02 2°56.678 234.5 14.1 231 10.7
2004-06-25 14:36:53 51°18.871 2°56.392 234 14.2 233 10.8
2004-06-25 14:37:57 51°18.71 2°56.084 234.3 14.2 229 10.7
2004-06-25 14:38:59 51°18.556 2°55.785 234.3 14 229 10.6
2004-06-25 14:40:04 51°18.395 2°55.473 234.8 14 232 10.5
2004-06-25 14:41:04 51°18.246 2°55.183 233.7 14 231 10.2
2004-06-25 14:42:04 51°18.097 2°54.897 234.7 14.1 233 10
2004-06-25 14:43:04 51°17.947 2°54.612 231.6 13.9 229 10.1
2004-06-25 14:44:04 51°17.794 2°54.333 233.8 13.8 228 9.8
2004-06-25 14:45:04 51°17.639 2°54.057 231.8 13.8 226 9.9
2004-06-25 14:46:04 51°17.485 2°53.783 230.2 13.9 226 9.7
2004-06-25 14:47:04 51°17.315 2°53.537 226.2 14.3 228 9.7
2004-06-25 14:48:02 51°17.135 2°53.336 208.8 13 199 9.4
2004-06-25 14:49:04 51°16.904 2°53.319 170.7 14.5 170 9.6
2004-06-25 14:50:04 51°16.683 2°53.44 163.3 14.3 161 12.6
2004-06-25 14:51:04 51°16.472 2°53.578 159.8 13.4 157 13.2
2004-06-25 14:52:04 51°16.261 2°53.715 158.4 13.4 157 13
2004-06-25 14:53:04 51°16.049 2°53.859 155.8 14.3 155 12.4
2004-06-25 14:54:04 51°15.837 2°53.991 159.5 13.9 157 12.1
2004-06-25 14:55:04 51°15.62 2°54.114 161 14 160 11.4
2004-06-25 14:56:04 51°15.408 2°54.244 159.1 13.6 157 10.6
2004-06-25 14:57:04 51°15.197 2°54.381 161.8 13.3 157 9.8
2004-06-25 14:58:04 51°14.987 2°54.516 161.8 13.5 160 9.8
2004-06-25 14:59:04 51°14.778 2°54.653 156.2 13.2 154 10.5
2004-06-25 15:00:04 51°14.594 2°54.835 148.5 12.8 146 10.9
2004-06-25 15:01:10 51°14.401 2°55.068 143.2 13.8 138 12.1
2004-06-25 15:02:09 51°14.244 2°55.294 142.4 11.9 141 12.3
2004-06-25 15:03:09 51°14.1 2°55.429 158.2 8.6 155 11.4
2004-06-25 15:04:10 51°13.973 2°55.522 158.8 8.5 155 13.4